sensor_id;sensor_type;location;lat;lon;timestamp;pressure;altitude;pressure_sealevel;temperature;humidity
54948;BME280;41113;41.882;12.530;2023-03-11T00:00:30;99942.34;;;11.94;78.53
54948;BME280;41113;41.882;12.530;2023-03-11T00:03:00;99926.19;;;11.86;78.47
54948;BME280;41113;41.882;12.530;2023-03-11T00:05:35;99932.91;;;11.90;78.29
54948;BME280;41113;41.882;12.530;2023-03-11T00:08:02;99939.03;;;12.08;78.10
54948;BME280;41113;41.882;12.530;2023-03-11T00:10:30;99938.34;;;12.06;77.74
54948;BME280;41113;41.882;12.530;2023-03-11T00:12:58;99928.63;;;12.13;78.02
54948;BME280;41113;41.882;12.530;2023-03-11T00:15:24;99919.53;;;12.14;78.23
54948;BME280;41113;41.882;12.530;2023-03-11T00:17:50;99929.97;;;12.26;78.08
54948;BME280;41113;41.882;12.530;2023-03-11T00:20:18;99933.03;;;12.39;77.72
54948;BME280;41113;41.882;12.530;2023-03-11T00:22:44;99931.31;;;12.22;77.86
54948;BME280;41113;41.882;12.530;2023-03-11T00:25:11;99913.81;;;12.18;78.35
54948;BME280;41113;41.882;12.530;2023-03-11T00:27:36;99916.34;;;12.11;78.20
54948;BME280;41113;41.882;12.530;2023-03-11T00:30:03;99931.97;;;12.07;78.38
54948;BME280;41113;41.882;12.530;2023-03-11T00:32:28;99923.56;;;12.10;78.88
54948;BME280;41113;41.882;12.530;2023-03-11T00:34:54;99919.69;;;12.13;79.06
54948;BME280;41113;41.882;12.530;2023-03-11T00:37:19;99929.31;;;12.24;79.02
54948;BME280;41113;41.882;12.530;2023-03-11T00:39:44;99926.25;;;12.19;78.88
54948;BME280;41113;41.882;12.530;2023-03-11T00:42:10;99932.31;;;12.21;78.89
54948;BME280;41113;41.882;12.530;2023-03-11T00:44:35;99922.25;;;12.31;78.86
54948;BME280;41113;41.882;12.530;2023-03-11T00:47:01;99924.97;;;12.39;78.38
54948;BME280;41113;41.882;12.530;2023-03-11T00:49:26;99920.41;;;12.48;78.15
54948;BME280;41113;41.882;12.530;2023-03-11T00:51:51;99908.97;;;12.45;78.19
54948;BME280;41113;41.882;12.530;2023-03-11T00:54:17;99916.88;;;12.39;78.49
54948;BME280;41113;41.882;12.530;2023-03-11T00:56:47;99922.59;;;12.36;78.66
54948;BME280;41113;41.882;12.530;2023-03-11T00:59:12;99940.25;;;12.30;78.83
54948;BME280;41113;41.882;12.530;2023-03-11T01:01:38;99942.75;;;12.24;79.24
54948;BME280;41113;41.882;12.530;2023-03-11T01:04:03;99929.13;;;12.17;79.49
54948;BME280;41113;41.882;12.530;2023-03-11T01:06:31;99929.63;;;12.29;79.50
54948;BME280;41113;41.882;12.530;2023-03-11T01:08:56;99944.78;;;12.30;79.11
54948;BME280;41113;41.882;12.530;2023-03-11T01:11:22;99941.41;;;12.28;79.16
54948;BME280;41113;41.882;12.530;2023-03-11T01:13:47;99928.28;;;12.17;79.28
54948;BME280;41113;41.882;12.530;2023-03-11T01:16:12;99906.03;;;11.98;79.70
54948;BME280;41113;41.882;12.530;2023-03-11T01:18:38;99901.31;;;12.00;80.07
54948;BME280;41113;41.882;12.530;2023-03-11T01:21:03;99892.28;;;12.09;80.03
54948;BME280;41113;41.882;12.530;2023-03-11T01:23:29;99894.81;;;12.19;79.35
54948;BME280;41113;41.882;12.530;2023-03-11T01:25:56;99892.22;;;12.01;79.88
54948;BME280;41113;41.882;12.530;2023-03-11T01:28:22;99885.47;;;11.81;80.85
54948;BME280;41113;41.882;12.530;2023-03-11T01:30:47;99879.75;;;11.84;81.05
54948;BME280;41113;41.882;12.530;2023-03-11T01:33:15;99875.72;;;11.88;80.76
54948;BME280;41113;41.882;12.530;2023-03-11T01:35:42;99873.22;;;12.03;80.59
54948;BME280;41113;41.882;12.530;2023-03-11T01:38:08;99882.31;;;12.02;80.19
54948;BME280;41113;41.882;12.530;2023-03-11T01:40:40;99878.59;;;11.95;80.14
54948;BME280;41113;41.882;12.530;2023-03-11T01:48:38;99867.84;;;12.03;80.53
54948;BME280;41113;41.882;12.530;2023-03-11T01:51:05;99868.00;;;11.93;80.48
54948;BME280;41113;41.882;12.530;2023-03-11T01:53:31;99858.75;;;11.88;80.68
54948;BME280;41113;41.882;12.530;2023-03-11T01:55:57;99862.63;;;12.01;80.64
54948;BME280;41113;41.882;12.530;2023-03-11T01:58:24;99865.66;;;11.98;80.71
54948;BME280;41113;41.882;12.530;2023-03-11T02:00:51;99857.75;;;11.97;80.73
54948;BME280;41113;41.882;12.530;2023-03-11T02:03:23;99851.88;;;11.93;81.03
54948;BME280;41113;41.882;12.530;2023-03-11T02:05:51;99842.38;;;11.73;81.96
54948;BME280;41113;41.882;12.530;2023-03-11T02:08:18;99854.28;;;11.62;82.60
54948;BME280;41113;41.882;12.530;2023-03-11T02:10:45;99840.81;;;11.62;82.98
54948;BME280;41113;41.882;12.530;2023-03-11T02:13:11;99846.44;;;11.77;82.16
54948;BME280;41113;41.882;12.530;2023-03-11T02:15:36;99834.38;;;11.89;81.57
54948;BME280;41113;41.882;12.530;2023-03-11T02:18:04;99830.50;;;11.83;81.66
54948;BME280;41113;41.882;12.530;2023-03-11T02:20:46;99826.94;;;11.75;82.15
54948;BME280;41113;41.882;12.530;2023-03-11T02:23:16;99816.25;;;11.49;83.53
54948;BME280;41113;41.882;12.530;2023-03-11T02:26:15;99799.28;;;11.40;83.70
54948;BME280;41113;41.882;12.530;2023-03-11T02:28:45;99801.63;;;11.43;83.42
54948;BME280;41113;41.882;12.530;2023-03-11T02:31:11;99806.19;;;11.51;82.68
54948;BME280;41113;41.882;12.530;2023-03-11T02:33:37;99797.59;;;11.47;82.51
54948;BME280;41113;41.882;12.530;2023-03-11T02:36:04;99810.28;;;11.29;83.28
54948;BME280;41113;41.882;12.530;2023-03-11T02:38:29;99817.66;;;11.19;84.45
54948;BME280;41113;41.882;12.530;2023-03-11T02:41:01;99812.03;;;11.04;84.38
54948;BME280;41113;41.882;12.530;2023-03-11T02:43:33;99810.34;;;11.03;84.21
54948;BME280;41113;41.882;12.530;2023-03-11T02:46:02;99808.88;;;11.09;83.49
54948;BME280;41113;41.882;12.530;2023-03-11T02:48:29;99806.44;;;10.89;83.59
54948;BME280;41113;41.882;12.530;2023-03-11T02:50:55;99786.16;;;10.69;84.11
54948;BME280;41113;41.882;12.530;2023-03-11T02:53:21;99785.16;;;10.70;84.30
54948;BME280;41113;41.882;12.530;2023-03-11T02:55:46;99769.44;;;10.75;83.87
54948;BME280;41113;41.882;12.530;2023-03-11T02:58:12;99781.84;;;10.76;83.71
54948;BME280;41113;41.882;12.530;2023-03-11T03:00:37;99782.47;;;10.70;84.25
54948;BME280;41113;41.882;12.530;2023-03-11T03:03:03;99773.16;;;10.56;84.05
54948;BME280;41113;41.882;12.530;2023-03-11T03:05:28;99784.16;;;10.71;83.56
54948;BME280;41113;41.882;12.530;2023-03-11T03:07:53;99795.28;;;10.76;83.22
54948;BME280;41113;41.882;12.530;2023-03-11T03:10:20;99787.56;;;10.73;83.11
54948;BME280;41113;41.882;12.530;2023-03-11T03:12:45;99791.69;;;10.68;83.58
54948;BME280;41113;41.882;12.530;2023-03-11T03:15:11;99795.84;;;10.62;83.53
54948;BME280;41113;41.882;12.530;2023-03-11T03:17:38;99805.19;;;10.76;83.39
54948;BME280;41113;41.882;12.530;2023-03-11T03:20:04;99801.34;;;10.52;84.10
54948;BME280;41113;41.882;12.530;2023-03-11T03:22:33;99793.13;;;10.54;84.36
54948;BME280;41113;41.882;12.530;2023-03-11T03:24:58;99787.44;;;10.57;84.32
54948;BME280;41113;41.882;12.530;2023-03-11T03:27:23;99782.28;;;10.64;84.53
54948;BME280;41113;41.882;12.530;2023-03-11T03:29:49;99771.84;;;10.60;84.44
54948;BME280;41113;41.882;12.530;2023-03-11T03:32:14;99764.56;;;10.45;84.47
54948;BME280;41113;41.882;12.530;2023-03-11T03:34:39;99746.69;;;10.36;85.10
54948;BME280;41113;41.882;12.530;2023-03-11T03:37:05;99745.63;;;10.28;85.41
54948;BME280;41113;41.882;12.530;2023-03-11T03:39:31;99727.84;;;10.27;85.22
54948;BME280;41113;41.882;12.530;2023-03-11T03:41:57;99719.81;;;10.27;85.14
54948;BME280;41113;41.882;12.530;2023-03-11T03:44:22;99713.44;;;10.28;85.09
54948;BME280;41113;41.882;12.530;2023-03-11T03:46:48;99709.28;;;10.34;85.20
54948;BME280;41113;41.882;12.530;2023-03-11T03:49:13;99709.53;;;10.49;84.33
54948;BME280;41113;41.882;12.530;2023-03-11T03:51:39;99708.59;;;10.66;83.96
54948;BME280;41113;41.882;12.530;2023-03-11T03:54:04;99706.25;;;10.63;83.36
54948;BME280;41113;41.882;12.530;2023-03-11T03:56:29;99700.53;;;10.58;83.37
54948;BME280;41113;41.882;12.530;2023-03-11T03:58:55;99707.59;;;10.67;83.25
54948;BME280;41113;41.882;12.530;2023-03-11T04:01:20;99724.81;;;10.82;82.63
54948;BME280;41113;41.882;12.530;2023-03-11T04:03:45;99745.94;;;10.77;81.93
54948;BME280;41113;41.882;12.530;2023-03-11T04:06:17;99747.75;;;10.43;82.57
54948;BME280;41113;41.882;12.530;2023-03-11T04:08:43;99759.75;;;10.31;83.21
54948;BME280;41113;41.882;12.530;2023-03-11T04:11:08;99760.38;;;10.24;83.65
54948;BME280;41113;41.882;12.530;2023-03-11T04:13:33;99770.16;;;10.34;84.03
54948;BME280;41113;41.882;12.530;2023-03-11T04:16:02;99772.59;;;10.45;83.66
54948;BME280;41113;41.882;12.530;2023-03-11T04:18:29;99760.06;;;10.53;83.33
54948;BME280;41113;41.882;12.530;2023-03-11T04:20:54;99762.91;;;10.52;83.15
54948;BME280;41113;41.882;12.530;2023-03-11T04:23:20;99769.13;;;10.52;83.47
54948;BME280;41113;41.882;12.530;2023-03-11T04:25:45;99774.06;;;10.65;83.15
54948;BME280;41113;41.882;12.530;2023-03-11T04:28:10;99781.53;;;10.53;83.31
54948;BME280;41113;41.882;12.530;2023-03-11T04:30:37;99791.13;;;10.56;83.69
54948;BME280;41113;41.882;12.530;2023-03-11T04:33:02;99774.59;;;10.43;84.13
54948;BME280;41113;41.882;12.530;2023-03-11T04:35:27;99774.53;;;10.35;84.28
54948;BME280;41113;41.882;12.530;2023-03-11T04:37:53;99772.38;;;10.38;83.89
54948;BME280;41113;41.882;12.530;2023-03-11T04:40:18;99767.31;;;10.35;83.67
54948;BME280;41113;41.882;12.530;2023-03-11T04:42:44;99773.47;;;10.27;83.65
54948;BME280;41113;41.882;12.530;2023-03-11T04:45:09;99779.84;;;10.26;83.75
54948;BME280;41113;41.882;12.530;2023-03-11T04:47:38;99794.47;;;10.32;83.99
54948;BME280;41113;41.882;12.530;2023-03-11T04:50:03;99788.47;;;10.38;83.75
54948;BME280;41113;41.882;12.530;2023-03-11T04:52:29;99787.78;;;10.36;83.24
54948;BME280;41113;41.882;12.530;2023-03-11T04:54:54;99777.97;;;10.45;83.58
54948;BME280;41113;41.882;12.530;2023-03-11T04:57:19;99784.72;;;10.49;83.20
54948;BME280;41113;41.882;12.530;2023-03-11T04:59:46;99789.13;;;10.58;83.07
54948;BME280;41113;41.882;12.530;2023-03-11T05:02:11;99797.22;;;10.66;82.40
54948;BME280;41113;41.882;12.530;2023-03-11T05:04:37;99806.59;;;10.62;82.06
54948;BME280;41113;41.882;12.530;2023-03-11T05:07:02;99810.41;;;10.34;83.52
54948;BME280;41113;41.882;12.530;2023-03-11T05:09:28;99806.69;;;10.26;84.09
54948;BME280;41113;41.882;12.530;2023-03-11T05:11:53;99802.69;;;10.31;84.21
54948;BME280;41113;41.882;12.530;2023-03-11T05:14:18;99798.16;;;10.31;84.47
54948;BME280;41113;41.882;12.530;2023-03-11T05:16:44;99802.44;;;10.06;85.48
54948;BME280;41113;41.882;12.530;2023-03-11T05:19:09;99809.81;;;10.04;86.02
54948;BME280;41113;41.882;12.530;2023-03-11T05:21:53;99824.63;;;10.08;86.12
54948;BME280;41113;41.882;12.530;2023-03-11T05:24:19;99820.72;;;10.20;85.69
54948;BME280;41113;41.882;12.530;2023-03-11T05:26:44;99820.47;;;10.32;85.14
54948;BME280;41113;41.882;12.530;2023-03-11T05:29:10;99809.09;;;10.38;84.75
54948;BME280;41113;41.882;12.530;2023-03-11T05:31:41;99808.56;;;10.52;84.16
54948;BME280;41113;41.882;12.530;2023-03-11T05:34:07;99812.66;;;10.64;83.88
54948;BME280;41113;41.882;12.530;2023-03-11T05:36:32;99818.13;;;10.54;83.57
54948;BME280;41113;41.882;12.530;2023-03-11T05:38:58;99825.56;;;10.60;83.69
54948;BME280;41113;41.882;12.530;2023-03-11T05:41:23;99819.03;;;10.63;83.29
54948;BME280;41113;41.882;12.530;2023-03-11T05:43:49;99811.50;;;10.67;83.26
54948;BME280;41113;41.882;12.530;2023-03-11T05:46:17;99808.22;;;10.55;83.28
54948;BME280;41113;41.882;12.530;2023-03-11T05:48:45;99809.03;;;10.47;83.87
54948;BME280;41113;41.882;12.530;2023-03-11T05:51:13;99800.19;;;10.55;84.15
54948;BME280;41113;41.882;12.530;2023-03-11T05:53:41;99803.66;;;10.73;83.84
54948;BME280;41113;41.882;12.530;2023-03-11T05:56:06;99782.47;;;10.70;83.18
54948;BME280;41113;41.882;12.530;2023-03-11T05:58:33;99783.44;;;10.61;83.39
54948;BME280;41113;41.882;12.530;2023-03-11T06:00:58;99782.59;;;10.60;83.74
54948;BME280;41113;41.882;12.530;2023-03-11T06:03:24;99773.75;;;10.42;83.67
54948;BME280;41113;41.882;12.530;2023-03-11T06:05:50;99792.06;;;10.47;84.32
54948;BME280;41113;41.882;12.530;2023-03-11T06:08:19;99790.47;;;10.62;83.74
54948;BME280;41113;41.882;12.530;2023-03-11T06:10:46;99797.97;;;10.76;83.45
54948;BME280;41113;41.882;12.530;2023-03-11T06:13:11;99801.03;;;10.81;83.24
54948;BME280;41113;41.882;12.530;2023-03-11T06:15:36;99806.75;;;10.86;82.61
54948;BME280;41113;41.882;12.530;2023-03-11T06:18:03;99809.03;;;10.73;83.36
54948;BME280;41113;41.882;12.530;2023-03-11T06:20:28;99809.44;;;10.86;82.99
54948;BME280;41113;41.882;12.530;2023-03-11T06:22:54;99802.28;;;11.03;82.10
54948;BME280;41113;41.882;12.530;2023-03-11T06:25:20;99816.13;;;11.16;81.38
54948;BME280;41113;41.882;12.530;2023-03-11T06:27:48;99825.03;;;10.83;82.11
54948;BME280;41113;41.882;12.530;2023-03-11T06:30:15;99835.16;;;10.97;82.14
54948;BME280;41113;41.882;12.530;2023-03-11T06:32:43;99830.63;;;10.98;81.55
54948;BME280;41113;41.882;12.530;2023-03-11T06:35:09;99830.41;;;10.57;82.86
54948;BME280;41113;41.882;12.530;2023-03-11T06:37:35;99844.50;;;10.59;83.73
54948;BME280;41113;41.882;12.530;2023-03-11T06:40:02;99835.94;;;10.81;82.98
54948;BME280;41113;41.882;12.530;2023-03-11T06:42:29;99856.75;;;10.79;82.57
54948;BME280;41113;41.882;12.530;2023-03-11T06:44:54;99833.50;;;10.96;82.17
54948;BME280;41113;41.882;12.530;2023-03-11T06:47:19;99823.69;;;11.13;81.61
54948;BME280;41113;41.882;12.530;2023-03-11T06:49:45;99817.50;;;11.20;80.75
54948;BME280;41113;41.882;12.530;2023-03-11T06:52:12;99822.81;;;10.78;81.58
54948;BME280;41113;41.882;12.530;2023-03-11T06:54:38;99830.03;;;10.78;82.25
54948;BME280;41113;41.882;12.530;2023-03-11T06:57:06;99823.91;;;10.94;81.83
54948;BME280;41113;41.882;12.530;2023-03-11T06:59:32;99832.34;;;10.47;81.30
54948;BME280;41113;41.882;12.530;2023-03-11T07:01:57;99825.47;;;10.26;82.20
54948;BME280;41113;41.882;12.530;2023-03-11T07:04:23;99833.25;;;10.38;81.89
54948;BME280;41113;41.882;12.530;2023-03-11T07:06:48;99845.28;;;10.51;82.50
54948;BME280;41113;41.882;12.530;2023-03-11T07:09:14;99854.19;;;10.52;81.97
54948;BME280;41113;41.882;12.530;2023-03-11T07:11:40;99842.56;;;10.69;81.41
54948;BME280;41113;41.882;12.530;2023-03-11T07:14:05;99840.81;;;10.60;81.03
54948;BME280;41113;41.882;12.530;2023-03-11T07:16:30;99845.56;;;10.66;81.39
54948;BME280;41113;41.882;12.530;2023-03-11T07:19:40;99846.50;;;10.57;81.31
54948;BME280;41113;41.882;12.530;2023-03-11T07:22:23;99837.34;;;10.42;81.63
54948;BME280;41113;41.882;12.530;2023-03-11T07:24:51;99849.44;;;10.46;81.84
54948;BME280;41113;41.882;12.530;2023-03-11T07:27:16;99847.09;;;10.43;81.58
54948;BME280;41113;41.882;12.530;2023-03-11T07:29:42;99854.50;;;10.49;81.33
54948;BME280;41113;41.882;12.530;2023-03-11T07:32:08;99851.59;;;10.68;81.03
54948;BME280;41113;41.882;12.530;2023-03-11T07:34:36;99840.66;;;10.62;79.23
54948;BME280;41113;41.882;12.530;2023-03-11T07:37:02;99847.47;;;10.74;79.43
54948;BME280;41113;41.882;12.530;2023-03-11T07:39:27;99843.31;;;10.79;79.50
54948;BME280;41113;41.882;12.530;2023-03-11T07:41:52;99833.31;;;10.98;79.23
54948;BME280;41113;41.882;12.530;2023-03-11T07:44:18;99834.97;;;10.90;78.77
54948;BME280;41113;41.882;12.530;2023-03-11T07:46:44;99833.97;;;10.91;78.27
54948;BME280;41113;41.882;12.530;2023-03-11T07:49:10;99830.19;;;10.76;78.07
54948;BME280;41113;41.882;12.530;2023-03-11T07:51:36;99821.53;;;10.90;78.72
54948;BME280;41113;41.882;12.530;2023-03-11T07:54:02;99833.94;;;11.17;78.16
54948;BME280;41113;41.882;12.530;2023-03-11T07:56:31;99839.88;;;11.37;76.62
54948;BME280;41113;41.882;12.530;2023-03-11T07:59:02;99834.47;;;11.21;76.85
54948;BME280;41113;41.882;12.530;2023-03-11T08:01:30;99833.47;;;11.30;77.54
54948;BME280;41113;41.882;12.530;2023-03-11T08:04:02;99834.91;;;11.42;76.34
54948;BME280;41113;41.882;12.530;2023-03-11T08:06:30;99845.25;;;11.37;76.55
54948;BME280;41113;41.882;12.530;2023-03-11T08:08:57;99825.81;;;11.43;76.47
54948;BME280;41113;41.882;12.530;2023-03-11T08:11:23;99822.91;;;11.37;76.02
54948;BME280;41113;41.882;12.530;2023-03-11T08:13:49;99823.81;;;11.45;76.29
54948;BME280;41113;41.882;12.530;2023-03-11T08:16:19;99826.72;;;11.68;76.33
54948;BME280;41113;41.882;12.530;2023-03-11T08:18:48;99816.88;;;11.85;75.66
54948;BME280;41113;41.882;12.530;2023-03-11T08:21:19;99805.28;;;12.01;75.16
54948;BME280;41113;41.882;12.530;2023-03-11T08:23:46;99803.78;;;12.06;74.30
54948;BME280;41113;41.882;12.530;2023-03-11T08:26:16;99810.50;;;11.94;74.91
54948;BME280;41113;41.882;12.530;2023-03-11T08:31:45;99823.66;;;12.05;75.49
54948;BME280;41113;41.882;12.530;2023-03-11T08:34:11;99816.06;;;12.17;74.93
54948;BME280;41113;41.882;12.530;2023-03-11T08:36:36;99801.44;;;12.03;74.24
54948;BME280;41113;41.882;12.530;2023-03-11T08:39:03;99814.91;;;12.03;74.56
54948;BME280;41113;41.882;12.530;2023-03-11T08:41:29;99813.88;;;12.12;74.66
54948;BME280;41113;41.882;12.530;2023-03-11T08:43:55;99814.72;;;12.29;74.68
54948;BME280;41113;41.882;12.530;2023-03-11T08:48:50;99833.88;;;12.02;73.96
54948;BME280;41113;41.882;12.530;2023-03-11T08:51:15;99843.13;;;11.99;74.39
54948;BME280;41113;41.882;12.530;2023-03-11T08:53:41;99839.59;;;11.91;74.85
54948;BME280;41113;41.882;12.530;2023-03-11T08:56:07;99845.69;;;12.09;75.14
54948;BME280;41113;41.882;12.530;2023-03-11T08:58:32;99856.94;;;12.29;74.48
54948;BME280;41113;41.882;12.530;2023-03-11T09:00:58;99856.09;;;12.28;73.26
54948;BME280;41113;41.882;12.530;2023-03-11T09:03:24;99845.84;;;12.24;72.74
54948;BME280;41113;41.882;12.530;2023-03-11T09:05:56;99843.00;;;12.17;72.77
54948;BME280;41113;41.882;12.530;2023-03-11T09:08:21;99846.84;;;12.31;73.78
54948;BME280;41113;41.882;12.530;2023-03-11T09:10:47;99854.28;;;12.45;73.70
54948;BME280;41113;41.882;12.530;2023-03-11T09:13:12;99850.22;;;12.49;73.15
54948;BME280;41113;41.882;12.530;2023-03-11T09:15:37;99840.13;;;12.51;73.20
54948;BME280;41113;41.882;12.530;2023-03-11T09:18:04;99842.78;;;12.67;73.39
54948;BME280;41113;41.882;12.530;2023-03-11T09:20:29;99838.75;;;12.80;72.22
54948;BME280;41113;41.882;12.530;2023-03-11T09:22:55;99828.66;;;12.73;72.33
54948;BME280;41113;41.882;12.530;2023-03-11T09:25:20;99823.09;;;12.67;72.22
54948;BME280;41113;41.882;12.530;2023-03-11T09:27:45;99806.09;;;12.66;72.52
54948;BME280;41113;41.882;12.530;2023-03-11T09:30:11;99798.34;;;12.71;72.53
54948;BME280;41113;41.882;12.530;2023-03-11T09:32:38;99798.97;;;12.90;72.68
54948;BME280;41113;41.882;12.530;2023-03-11T09:35:04;99796.59;;;13.03;71.80
54948;BME280;41113;41.882;12.530;2023-03-11T09:37:29;99801.63;;;13.06;71.26
54948;BME280;41113;41.882;12.530;2023-03-11T09:39:55;99787.44;;;13.12;71.26
54948;BME280;41113;41.882;12.530;2023-03-11T09:42:39;99793.63;;;13.37;70.77
54948;BME280;41113;41.882;12.530;2023-03-11T09:45:17;99795.31;;;13.61;70.88
54948;BME280;41113;41.882;12.530;2023-03-11T09:50:37;99786.16;;;14.16;68.64
54948;BME280;41113;41.882;12.530;2023-03-11T09:53:26;99783.22;;;14.25;68.57
54948;BME280;41113;41.882;12.530;2023-03-11T09:55:57;99781.91;;;14.44;68.59
54948;BME280;41113;41.882;12.530;2023-03-11T09:58:35;99788.09;;;14.68;67.64
54948;BME280;41113;41.882;12.530;2023-03-11T10:01:11;99775.72;;;14.73;67.43
54948;BME280;41113;41.882;12.530;2023-03-11T10:03:41;99782.88;;;14.81;66.51
54948;BME280;41113;41.882;12.530;2023-03-11T10:06:14;99786.44;;;14.96;66.30
54948;BME280;41113;41.882;12.530;2023-03-11T10:25:02;99801.09;;;16.53;63.00
54948;BME280;41113;41.882;12.530;2023-03-11T10:30:12;99779.41;;;16.53;62.88
54948;BME280;41113;41.882;12.530;2023-03-11T10:32:48;99785.88;;;16.73;60.43
54948;BME280;41113;41.882;12.530;2023-03-11T10:35:21;99789.53;;;16.65;62.55
54948;BME280;41113;41.882;12.530;2023-03-11T10:38:02;99787.16;;;16.77;60.92
54948;BME280;41113;41.882;12.530;2023-03-11T10:40:36;99795.69;;;16.74;62.00
54948;BME280;41113;41.882;12.530;2023-03-11T10:43:16;99785.91;;;16.79;60.46
54948;BME280;41113;41.882;12.530;2023-03-11T10:45:43;99783.50;;;16.91;62.09
54948;BME280;41113;41.882;12.530;2023-03-11T10:48:14;99787.22;;;16.90;57.96
54948;BME280;41113;41.882;12.530;2023-03-11T10:50:46;99788.03;;;16.84;58.57
54948;BME280;41113;41.882;12.530;2023-03-11T10:53:18;99779.75;;;16.92;61.29
54948;BME280;41113;41.882;12.530;2023-03-11T10:55:53;99781.94;;;17.17;60.86
54948;BME280;41113;41.882;12.530;2023-03-11T10:58:26;99777.03;;;17.33;60.76
54948;BME280;41113;41.882;12.530;2023-03-11T11:01:03;99772.47;;;17.40;59.49
54948;BME280;41113;41.882;12.530;2023-03-11T11:03:32;99759.75;;;17.54;60.08
54948;BME280;41113;41.882;12.530;2023-03-11T11:06:03;99758.19;;;17.73;59.77
54948;BME280;41113;41.882;12.530;2023-03-11T11:08:29;99750.69;;;17.82;59.35
54948;BME280;41113;41.882;12.530;2023-03-11T11:10:59;99752.56;;;17.88;58.99
54948;BME280;41113;41.882;12.530;2023-03-11T11:13:27;99743.78;;;17.86;59.33
54948;BME280;41113;41.882;12.530;2023-03-11T11:15:59;99749.63;;;17.83;55.33
54948;BME280;41113;41.882;12.530;2023-03-11T11:18:27;99733.78;;;17.99;58.47
54948;BME280;41113;41.882;12.530;2023-03-11T11:21:00;99733.16;;;18.04;53.60
54948;BME280;41113;41.882;12.530;2023-03-11T11:23:59;99742.78;;;18.00;57.66
54948;BME280;41113;41.882;12.530;2023-03-11T11:26:26;99738.78;;;17.83;53.24
54948;BME280;41113;41.882;12.530;2023-03-11T11:29:18;99731.66;;;17.68;53.93
54948;BME280;41113;41.882;12.530;2023-03-11T11:31:45;99734.59;;;17.73;55.89
54948;BME280;41113;41.882;12.530;2023-03-11T11:34:33;99746.75;;;17.91;55.33
54948;BME280;41113;41.882;12.530;2023-03-11T11:37:03;99735.88;;;17.97;56.85
54948;BME280;41113;41.882;12.530;2023-03-11T11:39:37;99735.06;;;17.97;56.94
54948;BME280;41113;41.882;12.530;2023-03-11T11:42:03;99731.66;;;17.82;56.65
54948;BME280;41113;41.882;12.530;2023-03-11T11:44:33;99737.25;;;17.60;56.41
54948;BME280;41113;41.882;12.530;2023-03-11T11:47:14;99740.38;;;17.57;54.99
54948;BME280;41113;41.882;12.530;2023-03-11T11:49:49;99734.69;;;17.52;55.90
54948;BME280;41113;41.882;12.530;2023-03-11T11:52:26;99729.28;;;17.52;56.56
54948;BME280;41113;41.882;12.530;2023-03-11T11:55:05;99729.03;;;17.40;56.84
54948;BME280;41113;41.882;12.530;2023-03-11T11:57:32;99722.47;;;17.22;54.91
54948;BME280;41113;41.882;12.530;2023-03-11T11:59:58;99734.78;;;17.18;56.16
54948;BME280;41113;41.882;12.530;2023-03-11T12:05:32;99721.41;;;17.16;55.05
54948;BME280;41113;41.882;12.530;2023-03-11T12:08:16;99721.91;;;17.26;56.93
54948;BME280;41113;41.882;12.530;2023-03-11T12:16:22;99703.75;;;17.33;56.38
54948;BME280;41113;41.882;12.530;2023-03-11T12:27:19;99698.53;;;17.32;56.42
54948;BME280;41113;41.882;12.530;2023-03-11T12:29:51;99697.31;;;17.41;56.03
54948;BME280;41113;41.882;12.530;2023-03-11T12:32:46;99687.69;;;17.45;56.05
54948;BME280;41113;41.882;12.530;2023-03-11T12:35:25;99694.38;;;17.49;54.92
54948;BME280;41113;41.882;12.530;2023-03-11T12:46:15;99687.69;;;17.32;55.09
54948;BME280;41113;41.882;12.530;2023-03-11T12:49:11;99681.63;;;17.30;54.04
54948;BME280;41113;41.882;12.530;2023-03-11T12:52:16;99683.94;;;17.33;54.35
54948;BME280;41113;41.882;12.530;2023-03-11T12:55:28;99676.84;;;17.45;54.21
54948;BME280;41113;41.882;12.530;2023-03-11T12:58:25;99665.66;;;17.68;54.09
54948;BME280;41113;41.882;12.530;2023-03-11T13:01:37;99663.97;;;17.87;52.74
54948;BME280;41113;41.882;12.530;2023-03-11T13:08:02;99669.84;;;17.90;53.23
54948;BME280;41113;41.882;12.530;2023-03-11T13:10:48;99661.91;;;17.95;53.65
54948;BME280;41113;41.882;12.530;2023-03-11T13:13:31;99664.81;;;17.81;52.70
54948;BME280;41113;41.882;12.530;2023-03-11T13:18:37;99650.38;;;17.60;53.89
54948;BME280;41113;41.882;12.530;2023-03-11T13:21:03;99659.78;;;17.64;54.04
54948;BME280;41113;41.882;12.530;2023-03-11T13:23:33;99663.94;;;17.60;54.00
54948;BME280;41113;41.882;12.530;2023-03-11T13:29:18;99653.28;;;17.59;54.08
54948;BME280;41113;41.882;12.530;2023-03-11T13:40:32;99649.28;;;17.48;54.60
54948;BME280;41113;41.882;12.530;2023-03-11T13:43:19;99630.50;;;17.40;55.47
54948;BME280;41113;41.882;12.530;2023-03-11T13:46:51;99653.88;;;17.34;54.76
54948;BME280;41113;41.882;12.530;2023-03-11T13:55:32;99657.41;;;17.41;55.29
54948;BME280;41113;41.882;12.530;2023-03-11T13:57:59;99646.16;;;17.45;55.35
54948;BME280;41113;41.882;12.530;2023-03-11T14:00:29;99640.94;;;17.43;54.86
54948;BME280;41113;41.882;12.530;2023-03-11T14:03:08;99633.41;;;17.32;55.38
54948;BME280;41113;41.882;12.530;2023-03-11T14:05:44;99634.03;;;17.34;56.08
54948;BME280;41113;41.882;12.530;2023-03-11T14:08:28;99644.66;;;17.29;55.93
54948;BME280;41113;41.882;12.530;2023-03-11T14:10:56;99641.31;;;17.27;56.72
54948;BME280;41113;41.882;12.530;2023-03-11T14:13:27;99630.06;;;17.30;57.16
54948;BME280;41113;41.882;12.530;2023-03-11T14:15:59;99640.50;;;17.33;57.36
54948;BME280;41113;41.882;12.530;2023-03-11T14:21:00;99648.00;;;17.31;57.61
54948;BME280;41113;41.882;12.530;2023-03-11T14:23:33;99646.78;;;17.40;58.02
54948;BME280;41113;41.882;12.530;2023-03-11T14:26:06;99644.06;;;17.40;57.94